Time;durP1;ratioP1;P1;durP2;ratioP2;P2;SDS_P1;SDS_P2;PMS_P1;PMS_P2;Temp;Humidity;BMP_temperature;BMP_pressure;BME280_temperature;BME280_humidity;BME280_pressure;Samples;Min_cycle;Max_cycle;Signal;HPM_P1;HPM_P2
2022/11/11 00:00:58;;;;;;;5.77;5.10;;;11.00;70.00;;;-142.21;99.66;112049.66;4993475;28;20948;-74
2022/11/11 00:03:27;;;;;;;6.33;5.50;;;11.10;70.10;;;-142.21;99.87;112049.66;4998338;28;20432;-73
2022/11/11 00:05:54;;;;;;;7.57;5.50;;;11.10;70.10;;;-142.21;100.00;112049.66;5000460;28;20478;-73
2022/11/11 00:08:21;;;;;;;6.10;5.10;;;11.00;70.00;;;-142.21;100.00;112049.66;5009170;28;20458;-73
2022/11/11 00:10:48;;;;;;;9.13;5.63;;;11.00;70.40;;;-142.21;100.00;112049.66;4973387;28;20482;-72
2022/11/11 00:13:16;;;;;;;7.33;5.50;;;11.00;70.50;;;-142.21;100.00;112049.66;5008731;28;20446;-73
2022/11/11 00:15:43;;;;;;;6.30;5.40;;;10.90;70.70;;;-142.21;100.00;112049.66;5001650;28;20460;-73
2022/11/11 00:26:31;;;;;;;6.13;4.70;;;10.70;70.60;;;-142.21;100.00;112049.66;5005872;28;20445;-74
2022/11/11 00:28:59;;;;;;;5.33;4.83;;;10.70;70.50;;;-142.21;100.00;112049.66;5010532;28;20521;-74
2022/11/11 00:31:26;;;;;;;5.57;5.07;;;10.70;70.50;;;-142.21;100.00;112049.66;4994636;28;20451;-74
2022/11/11 00:33:54;;;;;;;5.97;5.17;;;10.60;70.40;;;-142.21;100.00;112049.66;5008173;28;20600;-74
2022/11/11 00:36:21;;;;;;;6.93;5.23;;;10.60;70.50;;;-142.21;100.00;112049.66;5001130;28;20474;-73
2022/11/11 00:38:51;;;;;;;8.07;5.27;;;10.60;70.40;;;-142.21;100.00;112049.66;5004958;28;20454;-74
2022/11/11 00:41:21;;;;;;;6.10;4.70;;;10.60;70.40;;;-142.21;100.00;112049.66;4994732;28;20478;-73
2022/11/11 00:43:48;;;;;;;5.67;4.50;;;10.60;70.30;;;-142.21;100.00;112049.66;4976029;28;20526;-73
2022/11/11 00:51:47;;;;;;;5.47;4.33;;;10.50;70.50;;;-142.21;100.00;112049.66;4999160;28;20442;-74
2022/11/11 00:54:14;;;;;;;6.03;4.83;;;10.50;70.80;;;-142.21;100.00;112049.66;4958846;28;20943;-74
2022/11/11 00:56:42;;;;;;;5.97;4.53;;;10.50;70.60;;;-142.21;100.00;112049.66;5003154;28;20457;-73
2022/11/11 00:59:09;;;;;;;7.63;4.90;;;10.50;70.20;;;-142.21;100.00;112049.66;5001742;28;20545;-73
2022/11/11 01:01:38;;;;;;;5.03;4.37;;;10.40;70.10;;;-142.21;100.00;112049.66;5006485;28;20961;-73
2022/11/11 01:04:06;;;;;;;5.93;4.53;;;10.40;70.20;;;-142.21;100.00;112049.66;4959761;28;20524;-73
2022/11/11 01:06:33;;;;;;;4.97;3.53;;;10.40;70.20;;;-142.21;100.00;112049.66;4997176;28;20530;-73
2022/11/11 01:09:06;;;;;;;6.67;4.63;;;10.40;70.30;;;-142.21;100.00;112049.66;4992028;28;20907;-73
2022/11/11 01:11:35;;;;;;;4.97;4.57;;;10.40;70.40;;;-142.21;100.00;112049.66;5006295;28;20513;-72
2022/11/11 01:14:02;;;;;;;5.27;4.57;;;10.30;70.20;;;-142.21;100.00;112049.66;4991397;28;21015;-73
2022/11/11 01:16:29;;;;;;;5.33;4.70;;;10.30;70.10;;;-142.21;100.00;112049.66;5002745;28;20486;-73
2022/11/11 01:18:58;;;;;;;7.27;4.50;;;10.30;70.30;;;-142.21;100.00;112049.66;4996394;28;20493;-73
2022/11/11 01:21:26;;;;;;;5.30;4.43;;;10.30;70.70;;;-142.21;100.00;112049.66;5008787;28;20527;-73
2022/11/11 01:23:54;;;;;;;5.10;4.60;;;10.40;70.60;;;-142.21;100.00;112049.66;5008644;28;20452;-73
2022/11/11 01:26:25;;;;;;;5.53;5.03;;;10.30;70.50;;;-142.21;100.00;112049.66;5003855;28;20480;-73
2022/11/11 01:28:55;;;;;;;4.70;4.30;;;10.30;70.30;;;-142.21;100.00;112049.66;5010521;28;20858;-73
2022/11/11 01:31:25;;;;;;;5.97;4.40;;;10.20;70.30;;;-142.21;100.00;112049.66;4995112;28;20457;-73
2022/11/11 01:33:53;;;;;;;4.77;4.37;;;10.20;70.60;;;-142.21;100.00;112049.66;5005032;28;20905;-73
2022/11/11 01:36:24;;;;;;;5.20;4.70;;;10.10;71.50;;;-142.21;100.00;112049.66;4998036;28;20451;-73
2022/11/11 01:38:54;;;;;;;6.37;4.57;;;10.00;71.60;;;-142.21;100.00;112049.66;4997951;28;20537;-73
2022/11/11 01:41:33;;;;;;;6.00;4.10;;;10.00;71.80;;;-142.21;100.00;112049.66;4998738;28;20474;-73
2022/11/11 01:44:01;;;;;;;4.70;3.97;;;10.00;71.20;;;-142.21;100.00;112049.66;5010955;28;20445;-73
2022/11/11 01:46:36;;;;;;;6.10;4.27;;;10.00;71.20;;;-142.21;100.00;112049.66;4995605;28;20454;-74
2022/11/11 01:49:29;;;;;;;5.17;4.43;;;10.00;71.40;;;-142.21;100.00;112049.66;4993848;28;20460;-74
2022/11/11 01:52:06;;;;;;;5.13;4.50;;;10.10;71.60;;;-142.21;100.00;112049.66;5009706;28;20453;-74
2022/11/11 01:54:41;;;;;;;5.27;4.70;;;10.00;72.50;;;-142.21;100.00;112049.66;5004693;28;20442;-74
2022/11/11 01:57:15;;;;;;;6.83;4.67;;;10.00;72.00;;;-142.21;100.00;112049.66;5009171;28;20532;-74
2022/11/11 01:59:48;;;;;;;5.63;4.70;;;10.00;71.70;;;-142.21;100.00;112049.66;4993463;28;20438;-74
2022/11/11 02:02:24;;;;;;;6.37;4.83;;;10.00;71.60;;;-142.21;100.00;112049.66;4965402;28;20435;-73
2022/11/11 02:07:40;;;;;;;8.10;4.90;;;10.00;71.40;;;-142.21;100.00;112049.66;5010731;28;20795;-73
2022/11/11 02:10:10;;;;;;;5.17;4.67;;;10.00;71.60;;;-142.21;100.00;112049.66;5002506;28;20533;-74
2022/11/11 02:15:22;;;;;;;10.47;5.13;;;10.00;71.70;;;-142.21;100.00;112049.66;5009010;28;20837;-74
2022/11/11 02:17:50;;;;;;;6.30;5.23;;;10.10;71.60;;;-142.21;100.00;112049.66;5004120;28;20450;-74
2022/11/11 02:20:22;;;;;;;6.77;5.83;;;10.10;71.40;;;-142.21;100.00;112049.66;5011913;28;20466;-73
2022/11/11 02:22:57;;;;;;;8.73;5.40;;;10.10;71.40;;;-142.21;100.00;112049.66;5012146;28;20931;-73
2022/11/11 02:25:31;;;;;;;5.90;4.73;;;10.10;71.60;;;-142.21;100.00;112049.66;5011093;28;20862;-74
2022/11/11 02:28:03;;;;;;;6.77;6.03;;;10.00;71.40;;;-142.21;100.00;112049.66;5013834;28;20534;-73
2022/11/11 02:30:30;;;;;;;7.23;5.10;;;10.00;71.60;;;-142.21;100.00;112049.66;5003243;28;20431;-74
2022/11/11 02:32:57;;;;;;;7.17;5.00;;;10.00;71.60;;;-142.21;100.00;112049.66;5008650;28;20818;-73
2022/11/11 02:35:31;;;;;;;10.23;4.67;;;10.00;71.50;;;-142.21;100.00;112049.66;5001049;28;20446;-74
2022/11/11 02:37:59;;;;;;;6.57;4.00;;;9.90;74.10;;;-142.21;100.00;112049.66;4956538;28;20458;-73
2022/11/11 02:40:36;;;;;;;7.23;4.60;;;9.90;73.40;;;-142.21;100.00;112049.66;4994565;28;20976;-73
2022/11/11 02:43:03;;;;;;;6.70;4.50;;;9.90;73.40;;;-142.21;100.00;112049.66;4980458;28;20469;-73
2022/11/11 02:45:30;;;;;;;5.80;4.50;;;9.90;73.40;;;-142.21;100.00;112049.66;5013169;28;20482;-73
2022/11/11 02:47:57;;;;;;;6.80;4.80;;;9.80;73.30;;;-142.21;100.00;112049.66;5008645;28;20546;-73
2022/11/11 02:50:24;;;;;;;8.27;4.97;;;9.80;73.50;;;-142.21;100.00;112049.66;5004941;28;20454;-73
2022/11/11 02:52:52;;;;;;;6.07;4.53;;;9.80;73.60;;;-142.21;100.00;112049.66;4998321;28;20457;-73
2022/11/11 02:55:19;;;;;;;7.10;4.83;;;9.80;73.80;;;-142.21;100.00;112049.66;5000273;28;20442;-73
2022/11/11 02:57:48;;;;;;;8.03;4.80;;;9.80;73.60;;;-142.21;100.00;112049.66;5004517;28;20456;-73
2022/11/11 03:00:17;;;;;;;7.50;4.50;;;9.80;73.30;;;-142.21;100.00;112049.66;5005316;28;20449;-73
2022/11/11 03:02:44;;;;;;;6.17;4.23;;;9.80;73.20;;;-142.21;100.00;112049.66;5004626;28;20446;-74
2022/11/11 03:05:11;;;;;;;6.70;5.00;;;9.80;73.30;;;-142.21;100.00;112049.66;5012785;28;20921;-74
2022/11/11 03:07:38;;;;;;;7.63;4.80;;;9.80;73.30;;;-142.21;100.00;112049.66;5008753;28;20450;-74
2022/11/11 03:10:06;;;;;;;6.33;4.30;;;9.80;73.40;;;-142.21;100.00;112049.66;5007208;28;20985;-72
2022/11/11 03:12:34;;;;;;;10.57;4.57;;;9.80;73.30;;;-142.21;100.00;112049.66;5004661;28;20443;-74
2022/11/11 03:15:02;;;;;;;6.73;4.70;;;9.80;73.20;;;-142.21;100.00;112049.66;4993505;28;20534;-74
2022/11/11 03:17:40;;;;;;;7.20;4.13;;;9.80;72.90;;;-142.21;100.00;112049.66;5006867;28;20443;-74
2022/11/11 03:23:08;;;;;;;6.00;4.87;;;9.80;72.70;;;-142.21;100.00;112049.66;4965631;28;20515;-75
2022/11/11 03:25:39;;;;;;;7.83;4.87;;;9.70;73.20;;;-142.21;100.00;112049.66;4996742;28;20491;-75
2022/11/11 03:28:07;;;;;;;6.63;5.30;;;9.70;73.20;;;-142.21;100.00;112049.66;5005426;28;20449;-74
2022/11/11 03:30:36;;;;;;;5.20;4.63;;;9.60;73.10;;;-142.21;100.00;112049.66;5005259;28;20807;-74
2022/11/11 03:33:05;;;;;;;7.63;5.50;;;9.60;73.60;;;-142.21;100.00;112049.66;5004045;28;20479;-75
2022/11/11 03:35:33;;;;;;;7.97;5.00;;;9.60;73.60;;;-142.21;100.00;112049.66;5002321;28;20439;-74
2022/11/11 03:38:15;;;;;;;5.70;4.77;;;9.60;73.20;;;-142.21;100.00;112049.66;5003870;28;20513;-74
2022/11/11 03:40:43;;;;;;;6.83;4.87;;;9.60;73.20;;;-142.21;100.00;112049.66;4998210;28;20529;-75
2022/11/11 03:43:11;;;;;;;7.87;4.80;;;9.60;73.10;;;-142.21;100.00;112049.66;4998738;28;20461;-74
2022/11/11 03:45:41;;;;;;;6.37;4.60;;;9.70;73.20;;;-142.21;100.00;112049.66;5003088;28;20572;-74
2022/11/11 03:48:08;;;;;;;5.90;4.60;;;9.70;73.30;;;-142.21;100.00;112049.66;5006716;28;20439;-73
2022/11/11 03:50:35;;;;;;;5.47;4.73;;;9.60;73.10;;;-142.21;100.00;112049.66;5006684;28;20464;-74
2022/11/11 03:53:04;;;;;;;5.63;4.57;;;9.70;73.20;;;-142.21;100.00;112049.66;4999206;28;20935;-72
2022/11/11 03:55:31;;;;;;;7.30;4.40;;;9.70;73.20;;;-142.21;100.00;112049.66;4994653;28;20526;-74
2022/11/11 03:57:59;;;;;;;5.23;4.13;;;9.60;73.10;;;-142.21;100.00;112049.66;5001734;28;20481;-73
2022/11/11 04:00:29;;;;;;;6.80;4.03;;;9.60;73.10;;;-142.21;100.00;112049.66;4994288;28;20459;-73
2022/11/11 04:11:31;;;;;;;6.07;4.73;;;9.60;73.90;;;-142.21;100.00;112049.66;5003563;28;20509;-73
2022/11/11 04:16:48;;;;;;;12.90;5.10;;;9.70;75.00;;;-142.21;100.00;112049.66;4995171;28;20434;-74
2022/11/11 04:22:01;;;;;;;8.47;5.40;;;9.70;75.20;;;-142.21;100.00;112049.66;4992929;28;20441;-74
2022/11/11 04:27:16;;;;;;;8.50;5.23;;;9.70;75.50;;;-142.21;100.00;112049.66;5010395;28;20438;-73
2022/11/11 04:29:43;;;;;;;10.20;6.40;;;9.80;75.90;;;-142.21;100.00;112049.66;5007210;28;20447;-73
2022/11/11 04:35:01;;;;;;;12.03;6.90;;;9.90;76.30;;;-142.21;100.00;112049.66;5007251;28;20984;-73
2022/11/11 04:37:33;;;;;;;12.83;6.03;;;9.90;76.30;;;-142.21;100.00;112049.66;4992324;28;20431;-73
2022/11/11 04:42:45;;;;;;;10.90;6.00;;;9.80;76.60;;;-142.21;100.00;112049.66;5007852;28;20482;-74
2022/11/11 04:45:29;;;;;;;14.23;6.80;;;9.90;76.80;;;-142.21;100.00;112049.66;4993350;28;20843;-73
2022/11/11 04:47:59;;;;;;;11.03;6.43;;;9.90;77.00;;;-142.21;100.00;112049.66;4993675;28;20534;-74
2022/11/11 04:50:30;;;;;;;15.27;7.40;;;10.00;76.10;;;-142.21;100.00;112049.66;4998180;28;20454;-74
2022/11/11 04:52:57;;;;;;;13.20;7.10;;;10.00;76.60;;;-142.21;100.00;112049.66;4995212;28;20446;-73
2022/11/11 04:58:12;;;;;;;11.27;6.83;;;10.00;76.70;;;-142.21;100.00;112049.66;4992295;28;20783;-74
2022/11/11 05:00:39;;;;;;;17.37;6.30;;;10.00;77.20;;;-142.21;100.00;112049.66;5006850;28;20486;-73
2022/11/11 05:03:15;;;;;;;12.47;6.90;;;10.00;77.30;;;-142.21;100.00;112049.66;4994946;28;20450;-74
2022/11/11 05:11:18;;;;;;;15.33;8.17;;;10.10;77.60;;;-142.21;100.00;112049.66;5000365;28;20514;-75
2022/11/11 05:22:16;;;;;;;16.73;8.23;;;10.30;78.80;;;-142.21;100.00;112049.66;4993405;28;20446;-74
2022/11/11 05:27:28;;;;;;;14.23;8.60;;;10.30;78.40;;;-142.21;100.00;112049.66;4986074;28;20984;-75
2022/11/11 05:29:55;;;;;;;16.50;8.07;;;10.30;78.70;;;-142.21;100.00;112049.66;5002495;28;20505;-75
2022/11/11 05:32:24;;;;;;;14.43;6.73;;;10.30;78.70;;;-142.21;100.00;112049.66;4991311;28;20447;-72
2022/11/11 05:34:51;;;;;;;10.73;6.30;;;10.30;79.00;;;-142.21;100.00;112049.66;5010652;28;20446;-73
2022/11/11 05:37:20;;;;;;;15.83;6.30;;;10.20;79.30;;;-142.21;100.00;112049.66;5000353;28;20991;-73
2022/11/11 05:39:47;;;;;;;13.63;6.53;;;10.20;79.50;;;-142.21;100.00;112049.66;5002409;28;20449;-73
2022/11/11 05:42:14;;;;;;;13.73;6.43;;;10.00;79.70;;;-142.21;100.00;112049.66;5012957;28;20452;-73
2022/11/11 05:44:42;;;;;;;18.87;6.77;;;9.90;81.10;;;-142.21;100.00;112049.66;5015158;28;20445;-73
2022/11/11 05:47:09;;;;;;;17.70;6.23;;;9.90;81.70;;;-142.21;100.00;112049.66;5013939;28;21001;-73
2022/11/11 05:49:36;;;;;;;19.07;6.70;;;9.80;82.20;;;-142.21;100.00;112049.66;4998214;28;20485;-73
2022/11/11 05:52:04;;;;;;;24.53;6.57;;;9.70;82.50;;;-142.21;100.00;112049.66;4994624;28;20455;-68
2022/11/11 05:54:33;;;;;;;15.07;6.90;;;9.70;82.80;;;-142.21;100.00;112049.66;4997539;28;20558;-73
2022/11/11 05:57:00;;;;;;;19.17;6.57;;;9.70;83.20;;;-142.21;100.00;112049.66;4994836;28;20447;-72
2022/11/11 05:59:28;;;;;;;13.17;6.50;;;9.80;83.90;;;-142.21;100.00;112049.66;4997001;28;20955;-72
2022/11/11 06:01:55;;;;;;;14.77;6.43;;;9.80;84.00;;;-142.21;100.00;112049.66;4994232;28;21033;-72
2022/11/11 06:04:23;;;;;;;16.30;5.93;;;9.80;84.00;;;-142.21;100.00;112049.66;5012150;28;20549;-73
2022/11/11 06:06:50;;;;;;;13.93;6.10;;;9.90;83.90;;;-142.21;100.00;112049.66;5012524;28;20564;-73
2022/11/11 06:09:18;;;;;;;15.03;5.07;;;10.00;82.30;;;-142.21;100.00;112049.66;5005046;28;20457;-71
2022/11/11 06:11:47;;;;;;;9.43;5.07;;;10.00;83.40;;;-142.21;100.00;112049.66;5007067;28;20473;-72
2022/11/11 06:14:14;;;;;;;11.00;5.63;;;10.10;83.70;;;-142.21;100.00;112049.66;4997524;28;20494;-71
2022/11/11 06:16:41;;;;;;;11.67;5.43;;;10.10;83.20;;;-142.21;100.00;112049.66;5008915;28;20794;-72
2022/11/11 06:19:08;;;;;;;11.93;5.17;;;10.10;82.50;;;-142.21;100.00;112049.66;5001535;28;20546;-71
2022/11/11 06:21:55;;;;;;;9.20;5.30;;;10.20;82.50;;;-142.21;100.00;112049.66;4994769;28;20479;-70
2022/11/11 06:24:23;;;;;;;10.90;5.60;;;10.20;82.40;;;-142.21;100.00;112049.66;4996739;28;20450;-71
2022/11/11 06:26:54;;;;;;;8.87;4.57;;;10.20;82.30;;;-142.21;100.00;112049.66;5001670;28;20497;-72
2022/11/11 06:29:22;;;;;;;13.27;4.80;;;10.30;82.30;;;-142.21;100.00;112049.66;5005720;28;20521;-71
2022/11/11 06:31:49;;;;;;;8.13;4.77;;;10.30;81.90;;;-142.21;100.00;112049.66;4993866;28;20545;-71
2022/11/11 06:34:16;;;;;;;8.57;4.87;;;10.20;81.70;;;-142.21;100.00;112049.66;5002251;28;20956;-72
2022/11/11 06:36:43;;;;;;;14.60;5.00;;;10.30;81.40;;;-142.21;100.00;112049.66;5014232;28;20542;-72
2022/11/11 06:39:10;;;;;;;7.13;5.10;;;10.30;81.50;;;-142.21;100.00;112049.66;5002177;28;20478;-71
2022/11/11 06:41:37;;;;;;;8.23;5.10;;;10.10;81.90;;;-142.21;100.00;112049.66;4996853;28;20451;-71
2022/11/11 06:44:06;;;;;;;9.67;4.87;;;10.20;82.00;;;-142.21;100.00;112049.66;5003572;28;20452;-71
2022/11/11 06:46:33;;;;;;;7.33;4.60;;;10.20;82.10;;;-142.21;100.00;112049.66;4995380;28;20490;-72
2022/11/11 06:49:00;;;;;;;7.73;5.10;;;10.10;82.30;;;-142.21;100.00;112049.66;4998114;28;20455;-72
2022/11/11 06:51:28;;;;;;;7.60;4.53;;;10.10;82.20;;;-142.21;100.00;112049.66;4994125;28;20538;-71
2022/11/11 06:53:55;;;;;;;8.00;4.97;;;10.10;82.00;;;-142.21;100.00;112049.66;4999840;28;20533;-70
2022/11/11 06:56:22;;;;;;;12.70;4.50;;;10.20;81.90;;;-142.21;100.00;112049.66;4999046;28;20449;-72
2022/11/11 06:58:49;;;;;;;7.57;4.43;;;10.20;82.20;;;-142.21;100.00;112049.66;4997407;28;20494;-71
2022/11/11 07:01:18;;;;;;;7.53;4.70;;;10.20;82.50;;;-142.21;100.00;112049.66;4982816;28;20550;-72
2022/11/11 07:03:45;;;;;;;11.60;4.77;;;10.20;82.70;;;-142.21;100.00;112049.66;4984674;28;20478;-71
2022/11/11 07:06:12;;;;;;;6.53;4.40;;;10.20;82.50;;;-142.21;100.00;112049.66;5012893;28;20489;-71
2022/11/11 07:08:43;;;;;;;8.30;4.83;;;10.30;82.50;;;-142.21;100.00;112049.66;5008831;28;20482;-71
2022/11/11 07:11:11;;;;;;;8.77;4.50;;;10.40;82.30;;;-142.21;100.00;112049.66;4998243;28;20918;-72
2022/11/11 07:13:38;;;;;;;16.67;5.40;;;10.50;82.00;;;-142.21;100.00;112049.66;4993553;28;20810;-72
2022/11/11 07:16:06;;;;;;;8.47;4.33;;;10.60;81.70;;;-142.21;100.00;112049.66;4996364;28;20442;-72
2022/11/11 07:18:34;;;;;;;6.97;3.90;;;10.50;81.40;;;-142.21;100.00;112049.66;4996854;28;20447;-72
2022/11/11 07:21:01;;;;;;;5.77;4.13;;;10.50;81.30;;;-142.21;100.00;112049.66;4993027;28;20890;-72
2022/11/11 07:23:29;;;;;;;5.50;4.10;;;10.60;81.50;;;-142.21;100.00;112049.66;4993421;28;21001;-71
2022/11/11 07:25:56;;;;;;;4.90;3.77;;;10.60;81.10;;;-142.21;100.00;112049.66;4993070;28;20960;-71
2022/11/11 07:28:23;;;;;;;6.70;3.80;;;10.60;80.90;;;-142.21;100.00;112049.66;4993276;28;20487;-71
2022/11/11 07:30:51;;;;;;;8.63;4.33;;;10.70;81.30;;;-142.21;100.00;112049.66;4992588;28;20447;-72
2022/11/11 07:33:18;;;;;;;7.10;3.97;;;10.60;81.10;;;-142.21;100.00;112049.66;5006314;28;20541;-72
2022/11/11 07:35:46;;;;;;;6.57;4.80;;;10.70;81.10;;;-142.21;100.00;112049.66;5006885;28;20443;-72
2022/11/11 07:38:13;;;;;;;6.80;4.43;;;10.60;81.00;;;-142.21;100.00;112049.66;5000680;28;20855;-72
2022/11/11 07:40:41;;;;;;;21.77;5.13;;;10.60;80.90;;;-142.21;100.00;112049.66;4999495;28;20533;-72
2022/11/11 07:43:08;;;;;;;8.33;5.03;;;10.70;81.00;;;-142.21;100.00;112049.66;4992421;28;20540;-72
2022/11/11 07:45:36;;;;;;;5.23;4.63;;;10.70;80.80;;;-142.21;100.00;112049.66;4992441;28;20952;-72
2022/11/11 07:48:03;;;;;;;6.10;4.83;;;10.70;80.90;;;-142.21;100.00;112049.66;4992574;28;20544;-71
2022/11/11 07:50:31;;;;;;;4.77;4.20;;;10.80;80.70;;;-142.21;100.00;112049.66;4993521;28;20463;-71
2022/11/11 07:52:59;;;;;;;6.80;4.87;;;10.80;80.70;;;-142.21;100.00;112049.66;4992557;28;20479;-71
2022/11/11 07:55:29;;;;;;;5.20;4.50;;;10.80;80.40;;;-142.21;100.00;112049.66;4992835;28;20457;-71
2022/11/11 07:57:58;;;;;;;6.23;5.03;;;10.90;80.40;;;-142.21;100.00;112049.66;4992150;28;20435;-72
2022/11/11 08:00:25;;;;;;;5.60;4.60;;;10.90;80.40;;;-142.21;100.00;112049.66;4992415;28;20490;-71
2022/11/11 08:02:52;;;;;;;6.07;5.00;;;11.00;80.30;;;-142.21;100.00;112049.66;4992169;28;20545;-71
2022/11/11 08:05:20;;;;;;;5.00;4.40;;;11.00;80.30;;;-142.21;100.00;112049.66;4992225;28;20558;-72
2022/11/11 08:07:47;;;;;;;5.20;4.53;;;11.00;80.10;;;-142.21;100.00;112049.66;4992788;28;20483;-71
2022/11/11 08:10:16;;;;;;;5.40;4.77;;;11.00;80.10;;;-142.21;100.00;112049.66;4995148;28;20485;-72
2022/11/11 08:15:27;;;;;;;4.47;4.07;;;11.00;80.10;;;-142.21;100.00;112049.66;5012173;28;20418;-71
2022/11/11 08:17:54;;;;;;;8.03;4.27;;;11.00;80.10;;;-142.21;100.00;112049.66;5011646;28;20481;-71
2022/11/11 08:20:21;;;;;;;6.97;4.97;;;11.00;80.10;;;-142.21;100.00;112049.66;5012467;28;20489;-71
2022/11/11 08:22:53;;;;;;;6.00;4.50;;;11.10;80.50;;;-142.21;100.00;112049.66;5003303;28;20514;-71
2022/11/11 08:25:22;;;;;;;5.20;4.60;;;11.10;80.50;;;-142.21;100.00;112049.66;4992438;28;20800;-71
2022/11/11 08:27:49;;;;;;;5.27;4.23;;;11.10;80.20;;;-142.21;100.00;112049.66;4992495;28;20526;-71
2022/11/11 08:30:17;;;;;;;5.30;4.13;;;11.10;80.10;;;-142.21;100.00;112049.66;4991908;28;20533;-71
2022/11/11 08:32:44;;;;;;;5.37;4.30;;;11.10;80.00;;;-142.21;100.00;112049.66;4992439;28;20819;-71
2022/11/11 08:35:11;;;;;;;5.10;4.53;;;11.10;80.20;;;-142.21;100.00;112049.66;4992033;28;20766;-72
2022/11/11 08:37:38;;;;;;;9.77;5.03;;;11.20;80.10;;;-142.21;100.00;112049.66;4992485;28;20455;-72
2022/11/11 08:40:07;;;;;;;4.83;3.93;;;11.10;79.50;;;-142.21;100.00;112049.66;4991486;28;20559;-72
2022/11/11 08:42:36;;;;;;;4.37;3.97;;;11.20;79.80;;;-142.21;100.00;112049.66;4992244;28;20446;-71
2022/11/11 08:45:04;;;;;;;5.63;4.47;;;11.10;79.60;;;-142.21;100.00;112049.66;4991410;28;21034;-71
2022/11/11 08:47:34;;;;;;;4.83;4.33;;;11.10;79.80;;;-142.21;100.00;112049.66;4992139;28;20880;-71
2022/11/11 08:50:01;;;;;;;4.67;4.07;;;11.10;80.00;;;-142.21;100.00;112049.66;4991521;28;20643;-72
2022/11/11 08:52:28;;;;;;;25.33;5.00;;;11.20;80.10;;;-142.21;100.00;112049.66;4991812;28;20486;-71
2022/11/11 08:54:55;;;;;;;26.10;4.90;;;11.20;79.60;;;-142.21;100.00;112049.66;4991436;28;20870;-72
2022/11/11 08:57:23;;;;;;;7.33;4.10;;;11.10;79.40;;;-142.21;100.00;112049.66;4991661;28;20481;-71
2022/11/11 08:59:51;;;;;;;11.60;4.20;;;11.10;80.40;;;-142.21;100.00;112049.66;4992078;28;20482;-71
2022/11/11 09:02:19;;;;;;;16.97;4.53;;;11.00;80.50;;;-142.21;100.00;112049.66;4991416;28;20455;-71
2022/11/11 09:04:46;;;;;;;7.33;4.50;;;11.00;80.20;;;-142.21;100.00;112049.66;4991796;28;20471;-71
2022/11/11 09:07:14;;;;;;;6.63;5.10;;;10.90;80.80;;;-142.21;100.00;112049.66;4991275;28;20570;-71
2022/11/11 09:09:41;;;;;;;13.07;4.33;;;10.90;81.00;;;-142.21;100.00;112049.66;4991777;28;20447;-71
2022/11/11 09:12:08;;;;;;;5.87;4.37;;;11.00;81.10;;;-142.21;100.00;112049.66;4990922;28;20478;-71
2022/11/11 09:14:36;;;;;;;5.73;4.30;;;11.20;81.40;;;-142.21;100.00;112049.66;4991820;28;20453;-71
2022/11/11 09:17:05;;;;;;;6.43;4.57;;;11.30;81.30;;;-142.21;100.00;112049.66;4996480;28;20442;-72
2022/11/11 09:19:33;;;;;;;12.80;4.23;;;11.40;81.30;;;-142.21;100.00;112049.66;5015539;28;20549;-71
2022/11/11 09:22:00;;;;;;;25.10;4.80;;;11.50;81.00;;;-142.21;100.00;112049.66;5012711;28;21002;-72
2022/11/11 09:24:27;;;;;;;16.83;4.50;;;11.60;80.80;;;-142.21;100.00;112049.66;4996076;28;20550;-71
2022/11/11 09:26:54;;;;;;;8.57;4.90;;;11.60;80.10;;;-142.21;100.00;112049.66;4995588;28;20545;-71
2022/11/11 09:29:22;;;;;;;12.07;4.50;;;11.60;80.30;;;-142.21;100.00;112049.66;4996047;28;20847;-72
2022/11/11 09:31:49;;;;;;;13.70;5.17;;;11.50;80.20;;;-142.21;100.00;112049.66;4995950;28;20922;-71
2022/11/11 09:34:19;;;;;;;5.97;5.23;;;11.50;80.10;;;-142.21;100.00;112049.66;4995114;28;20536;-71
2022/11/11 09:36:46;;;;;;;8.50;5.00;;;11.50;80.50;;;-142.21;100.00;112049.66;5028116;28;20488;-71
2022/11/11 09:39:13;;;;;;;5.10;4.57;;;11.60;80.90;;;-142.21;100.00;112049.66;5027156;28;20848;-71
2022/11/11 09:41:59;;;;;;;7.67;4.80;;;11.60;80.70;;;-142.21;100.00;112049.66;4994948;28;20489;-71
2022/11/11 09:45:10;;;;;;;6.07;4.47;;;11.60;80.90;;;-142.21;100.00;112049.66;4995588;28;20434;-71
2022/11/11 09:47:53;;;;;;;5.63;5.03;;;11.70;81.00;;;-142.21;100.00;112049.66;4995506;28;20506;-71
2022/11/11 09:50:26;;;;;;;6.03;5.30;;;11.70;81.00;;;-142.21;100.00;112049.66;4995037;28;20492;-71
2022/11/11 09:53:01;;;;;;;7.23;5.63;;;11.70;81.00;;;-142.21;100.00;112049.66;5014469;28;20503;-71
2022/11/11 09:55:38;;;;;;;7.23;6.23;;;11.90;81.60;;;-142.21;100.00;112049.66;5014801;28;20465;-71
2022/11/11 09:58:13;;;;;;;7.70;6.17;;;12.00;81.70;;;-142.21;100.00;112049.66;5014236;28;20923;-71
2022/11/11 10:00:49;;;;;;;7.27;5.90;;;12.10;81.50;;;-142.21;100.00;112049.66;5014600;28;20438;-71
2022/11/11 10:03:19;;;;;;;7.00;5.30;;;12.10;79.70;;;-142.21;100.00;112049.66;5014159;28;20443;-71
2022/11/11 10:05:58;;;;;;;7.90;6.67;;;12.00;79.60;;;-142.21;100.00;112049.66;5014548;28;20556;-71
2022/11/11 10:08:29;;;;;;;7.30;5.60;;;12.10;80.40;;;-142.21;100.00;112049.66;5014725;28;20469;-71
2022/11/11 10:11:00;;;;;;;7.10;6.00;;;12.20;80.70;;;-142.21;100.00;112049.66;5014240;28;20506;-71
2022/11/11 10:13:32;;;;;;;6.13;5.53;;;12.30;81.30;;;-142.21;100.00;112049.66;5014532;28;20524;-71
2022/11/11 10:16:13;;;;;;;5.70;5.13;;;12.30;80.90;;;-142.21;100.00;112049.66;5014113;28;20430;-71
2022/11/11 10:19:02;;;;;;;5.57;5.00;;;12.50;80.40;;;-142.21;100.00;112049.66;5014652;28;20801;-71
2022/11/11 10:21:41;;;;;;;7.10;5.50;;;12.50;80.20;;;-142.21;100.00;112049.66;5014293;28;20505;-71
2022/11/11 10:24:17;;;;;;;6.10;4.93;;;12.60;79.70;;;-142.21;100.00;112049.66;4994276;28;20474;-71
2022/11/11 10:26:47;;;;;;;5.47;4.67;;;12.60;79.60;;;-142.21;100.00;112049.66;5006209;28;20477;-71
2022/11/11 10:29:19;;;;;;;6.07;5.37;;;12.60;80.20;;;-142.21;100.00;112049.66;5013549;28;20450;-71
2022/11/11 10:31:57;;;;;;;6.27;5.03;;;12.70;80.10;;;-142.21;100.00;112049.66;5014183;28;20517;-71
2022/11/11 10:34:33;;;;;;;5.83;5.23;;;12.80;80.30;;;-142.21;100.00;112049.66;5013914;28;20438;-71
2022/11/11 10:37:03;;;;;;;6.57;5.97;;;12.80;79.70;;;-142.21;100.00;112049.66;5013491;28;20430;-71
2022/11/11 10:39:50;;;;;;;6.53;4.60;;;12.80;79.10;;;-142.21;100.00;112049.66;5014049;28;20521;-71
2022/11/11 10:42:18;;;;;;;5.97;5.30;;;12.90;79.70;;;-142.21;100.00;112049.66;5013703;28;20430;-71
2022/11/11 10:44:46;;;;;;;7.30;5.90;;;12.90;79.20;;;-142.21;100.00;112049.66;5014000;28;20529;-71
2022/11/11 10:47:25;;;;;;;7.03;6.10;;;13.00;78.80;;;-142.21;100.00;112049.66;5013160;28;20571;-71
2022/11/11 10:49:59;;;;;;;7.03;6.33;;;12.90;78.60;;;-142.21;100.00;112049.66;5013815;28;20458;-71
2022/11/11 10:52:40;;;;;;;8.00;6.37;;;13.00;79.40;;;-142.21;100.00;112049.66;5014053;28;20530;-71
2022/11/11 10:55:16;;;;;;;6.40;5.80;;;13.00;79.20;;;-142.21;100.00;112049.66;5013179;28;20434;-71
2022/11/11 10:57:52;;;;;;;6.80;6.10;;;13.10;78.90;;;-142.21;100.00;112049.66;5013997;28;20465;-71
2022/11/11 11:00:19;;;;;;;8.60;6.17;;;13.10;78.30;;;-142.21;100.00;112049.66;5012865;28;20492;-71
2022/11/11 11:02:58;;;;;;;7.50;6.50;;;13.10;78.40;;;-142.21;100.00;112049.66;5013901;28;20497;-71
2022/11/11 11:05:34;;;;;;;7.50;6.53;;;13.10;78.70;;;-142.21;100.00;112049.66;5012722;28;20509;-71
2022/11/11 11:08:12;;;;;;;6.67;5.97;;;13.20;78.70;;;-142.21;100.00;112049.66;5012854;28;20474;-71
2022/11/11 11:10:45;;;;;;;7.37;6.00;;;13.30;78.60;;;-142.21;100.00;112049.66;5013322;28;20488;-72